createdAt,value
2023-04-20T00:00:18.342Z,7.70
2023-04-20T00:02:23.021Z,6.80
2023-04-20T00:04:26.533Z,3.92
2023-04-20T00:06:33.012Z,2.80
2023-04-20T00:08:36.463Z,6.78
2023-04-20T00:10:40.020Z,5.10
2023-04-20T00:12:43.564Z,8.32
2023-04-20T00:14:47.064Z,6.05
2023-04-20T00:16:50.731Z,3.20
2023-04-20T00:18:54.191Z,5.43
2023-04-20T00:20:57.947Z,6.88
2023-04-20T00:23:03.025Z,4.75
2023-04-20T00:25:07.149Z,5.57
2023-04-20T00:27:11.881Z,3.88
2023-04-20T00:29:15.449Z,4.50
2023-04-20T00:31:19.009Z,7.97
2023-04-20T00:33:23.208Z,6.05
2023-04-20T00:35:26.520Z,9.38
2023-04-20T00:37:29.885Z,4.60
2023-04-20T00:39:34.861Z,4.50
2023-04-20T00:41:39.548Z,5.00
2023-04-20T00:43:51.812Z,6.85
2023-04-20T00:45:55.346Z,4.70
2023-04-20T00:47:58.875Z,12.55
2023-04-20T00:50:04.613Z,4.80
2023-04-20T00:52:08.067Z,6.15
2023-04-20T00:54:11.601Z,6.85
2023-04-20T00:56:17.382Z,7.03
2023-04-20T00:58:20.741Z,7.20
2023-04-20T01:00:24.326Z,6.65
2023-04-20T01:02:28.011Z,6.53
2023-04-20T01:04:32.512Z,6.50
2023-04-20T01:06:36.254Z,9.43
2023-04-20T01:08:47.568Z,6.10
2023-04-20T01:10:51.333Z,6.03
2023-04-20T01:12:56.069Z,6.63
2023-04-20T01:14:59.511Z,8.02
2023-04-20T01:17:04.609Z,9.57
2023-04-20T01:19:08.082Z,5.72
2023-04-20T01:21:12.610Z,3.72
2023-04-20T01:23:17.397Z,7.57
2023-04-20T01:25:21.680Z,7.10
2023-04-20T01:27:25.129Z,4.43
2023-04-20T01:29:28.629Z,5.20
2023-04-20T01:31:32.340Z,6.65
2023-04-20T01:33:36.431Z,6.72
2023-04-20T01:35:43.548Z,5.05
2023-04-20T01:37:46.954Z,5.80
2023-04-20T01:39:51.944Z,7.30
2023-04-20T01:41:58.087Z,8.32
2023-04-20T01:44:01.510Z,9.88
2023-04-20T01:46:05.177Z,6.90
2023-04-20T01:48:08.656Z,10.50
2023-04-20T01:50:12.632Z,12.55
2023-04-20T01:52:15.988Z,6.32
2023-04-20T01:54:19.457Z,8.57
2023-04-20T01:56:24.301Z,6.10
2023-04-20T01:58:27.698Z,8.63
2023-04-20T02:00:31.309Z,8.80
2023-04-20T02:02:35.975Z,6.55
2023-04-20T02:04:39.516Z,12.00
2023-04-20T02:06:43.720Z,8.00
2023-04-20T02:08:47.118Z,8.38
2023-04-20T02:10:50.637Z,6.25
2023-04-20T02:12:55.457Z,10.50
2023-04-20T02:14:58.906Z,9.02
2023-04-20T02:17:02.397Z,5.75
2023-04-20T02:19:06.409Z,7.70
2023-04-20T02:21:09.746Z,8.07
2023-04-20T02:23:13.520Z,11.43
2023-04-20T02:25:17.031Z,13.70
2023-04-20T02:27:20.393Z,8.27
2023-04-20T02:29:25.494Z,7.75
2023-04-20T02:31:28.984Z,9.57
2023-04-20T02:33:32.582Z,11.00
2023-04-20T02:35:36.229Z,12.13
2023-04-20T02:37:39.633Z,7.38
2023-04-20T02:39:43.051Z,7.43
2023-04-20T02:41:46.970Z,8.00
2023-04-20T02:43:50.442Z,6.15
2023-04-20T02:45:55.412Z,8.40
2023-04-20T02:47:59.694Z,8.25
2023-04-20T02:50:07.847Z,7.97
2023-04-20T02:52:24.750Z,9.38
2023-04-20T02:54:28.459Z,10.40
2023-04-20T02:56:32.504Z,9.52
2023-04-20T02:58:41.026Z,12.23
2023-04-20T03:00:52.173Z,13.85
2023-04-20T03:02:57.126Z,9.50
2023-04-20T03:05:02.205Z,12.43
2023-04-20T03:07:15.283Z,12.38
2023-04-20T03:09:20.409Z,11.02
2023-04-20T03:11:59.163Z,7.85
2023-04-20T03:14:23.597Z,6.53
2023-04-20T03:16:27.090Z,9.30
2023-04-20T03:18:33.841Z,6.57
2023-04-20T03:20:37.539Z,10.38
2023-04-20T03:22:40.898Z,13.52
2023-04-20T03:24:45.502Z,13.48
2023-04-20T03:26:56.972Z,7.47
2023-04-20T03:29:16.756Z,12.35
2023-04-20T03:31:21.540Z,13.32
2023-04-20T03:33:26.964Z,12.70
2023-04-20T03:35:32.154Z,11.60
2023-04-20T03:37:35.673Z,11.27
2023-04-20T03:39:39.101Z,10.00
2023-04-20T03:41:42.329Z,11.95
2023-04-20T03:43:45.633Z,12.40
2023-04-20T03:45:49.493Z,8.75
2023-04-20T03:47:54.478Z,12.32
2023-04-20T03:49:58.454Z,11.15
2023-04-20T03:52:03.224Z,9.68
2023-04-20T03:54:07.164Z,8.30
2023-04-20T03:56:11.045Z,14.02
2023-04-20T03:58:14.330Z,13.00
2023-04-20T04:00:32.105Z,12.32
2023-04-20T04:02:46.976Z,12.25
2023-04-20T04:04:55.450Z,15.38
2023-04-20T04:06:59.056Z,14.85
2023-04-20T04:09:03.766Z,13.57
2023-04-20T04:11:07.150Z,9.48
2023-04-20T04:13:10.690Z,11.68
2023-04-20T04:15:14.300Z,12.25
2023-04-20T04:17:26.222Z,16.55
2023-04-20T04:19:31.910Z,13.93
2023-04-20T04:21:35.914Z,18.83
2023-04-20T04:23:42.355Z,16.60
2023-04-20T04:25:57.268Z,10.80
2023-04-20T04:28:03.150Z,12.60
2023-04-20T04:30:09.691Z,14.60
2023-04-20T04:32:14.068Z,13.55
2023-04-20T04:34:18.393Z,15.82
2023-04-20T04:36:27.051Z,11.93
2023-04-20T04:38:33.424Z,15.77
2023-04-20T04:40:38.183Z,14.95
2023-04-20T04:42:45.479Z,15.85
2023-04-20T04:44:49.111Z,16.10
2023-04-20T04:47:03.531Z,14.50
2023-04-20T04:49:08.119Z,15.95
2023-04-20T04:51:11.445Z,14.45
2023-04-20T04:53:14.699Z,17.90
2023-04-20T04:55:18.038Z,12.40
2023-04-20T04:57:21.406Z,13.55
2023-04-20T04:59:26.226Z,14.57
2023-04-20T05:01:29.565Z,13.52
2023-04-20T05:03:33.013Z,14.73
2023-04-20T05:05:36.406Z,14.88
2023-04-20T05:07:40.242Z,12.07
2023-04-20T05:09:43.608Z,15.07
2023-04-20T05:11:46.865Z,13.07
2023-04-20T05:13:50.364Z,14.25
2023-04-20T05:15:55.315Z,15.23
2023-04-20T05:17:58.728Z,17.60
2023-04-20T05:20:02.059Z,13.93
2023-04-20T05:22:05.753Z,18.05
2023-04-20T05:24:09.239Z,16.38
2023-04-20T05:26:12.579Z,18.70
2023-04-20T05:28:15.935Z,16.38
2023-04-20T05:30:21.843Z,17.67
2023-04-20T05:32:26.981Z,14.65
2023-04-20T05:34:30.455Z,12.82
2023-04-20T05:36:34.397Z,16.00
2023-04-20T05:38:37.940Z,17.02
2023-04-20T05:40:41.209Z,16.33
2023-04-20T05:42:44.692Z,18.52
2023-04-20T05:44:48.101Z,20.23
2023-04-20T05:46:51.403Z,14.45
2023-04-20T05:48:56.325Z,19.38
2023-04-20T05:50:59.663Z,15.32
2023-04-20T05:53:03.011Z,21.85
2023-04-20T05:55:07.144Z,18.70
2023-04-20T05:57:10.524Z,16.83
2023-04-20T05:59:13.851Z,16.77
2023-04-20T06:01:17.506Z,17.45
2023-04-20T06:03:20.935Z,21.92
2023-04-20T06:05:25.990Z,21.60
2023-04-20T06:07:29.385Z,22.63
2023-04-20T06:09:32.702Z,27.25
2023-04-20T06:11:36.131Z,23.25
2023-04-20T06:13:39.477Z,24.00
2023-04-20T06:15:42.781Z,25.98
2023-04-20T06:17:46.159Z,17.02
2023-04-20T06:19:49.547Z,20.35
2023-04-20T06:21:54.255Z,18.00
2023-04-20T06:23:57.617Z,20.63
2023-04-20T06:26:00.900Z,23.83
2023-04-20T06:28:04.219Z,18.73
2023-04-20T06:30:08.813Z,21.35
2023-04-20T06:32:12.126Z,20.42
2023-04-20T06:34:16.288Z,21.38
2023-04-20T06:36:19.587Z,19.13
2023-04-20T06:38:25.409Z,17.27
2023-04-20T06:40:29.313Z,20.88
2023-04-20T06:42:32.612Z,16.52
2023-04-20T06:44:36.043Z,18.83
2023-04-20T06:46:39.483Z,17.15
2023-04-20T06:48:42.890Z,19.33
2023-04-20T06:50:49.107Z,20.80
2023-04-20T06:52:52.463Z,19.83
2023-04-20T06:54:57.179Z,20.17
2023-04-20T06:57:01.383Z,18.33
2023-04-20T06:59:04.720Z,20.20
2023-04-20T07:01:08.063Z,14.18
2023-04-20T07:03:11.714Z,17.50
2023-04-20T07:05:15.199Z,22.83
2023-04-20T07:07:18.613Z,21.75
2023-04-20T07:09:23.093Z,18.65
2023-04-20T07:11:27.885Z,21.88
2023-04-20T07:13:33.866Z,15.43
2023-04-20T07:15:37.316Z,22.20
2023-04-20T07:17:41.075Z,22.40
2023-04-20T07:19:44.511Z,20.52
2023-04-20T07:21:47.817Z,15.05
2023-04-20T07:23:51.142Z,21.73
2023-04-20T07:25:54.482Z,20.60
2023-04-20T07:27:59.172Z,20.00
2023-04-20T07:30:02.569Z,24.20
2023-04-20T07:32:06.451Z,16.75
2023-04-20T07:34:09.847Z,20.85
2023-04-20T07:36:13.209Z,18.98
2023-04-20T07:38:16.948Z,16.85
2023-04-20T07:40:20.329Z,16.95
2023-04-20T07:42:23.624Z,19.27
2023-04-20T07:44:28.350Z,21.63
2023-04-20T07:46:31.647Z,20.65
2023-04-20T07:48:35.591Z,22.73
2023-04-20T07:50:38.911Z,21.13
2023-04-20T07:52:42.253Z,18.70
2023-04-20T07:54:46.147Z,24.15
2023-04-20T07:56:49.467Z,28.23
2023-04-20T07:58:52.800Z,23.98
2023-04-20T08:00:57.508Z,21.30
2023-04-20T08:03:01.093Z,24.25
2023-04-20T08:05:04.789Z,25.38
2023-04-20T08:07:08.216Z,24.02
2023-04-20T08:09:13.148Z,22.67
2023-04-20T08:11:16.730Z,21.52
2023-04-20T08:13:19.924Z,22.00
2023-04-20T08:15:23.617Z,22.70
2023-04-20T08:17:28.419Z,23.02
2023-04-20T08:19:31.798Z,26.10
2023-04-20T08:21:35.100Z,21.40
2023-04-20T08:23:38.390Z,14.57
2023-04-20T08:25:41.998Z,23.15
2023-04-20T08:27:45.368Z,19.50
2023-04-20T08:29:48.761Z,20.92
2023-04-20T08:31:52.319Z,17.83
2023-04-20T08:33:57.233Z,20.60
2023-04-20T08:36:00.607Z,22.55
2023-04-20T08:38:03.952Z,26.63
2023-04-20T08:40:08.652Z,20.08
2023-04-20T08:42:12.318Z,20.13
2023-04-20T08:44:15.900Z,23.25
2023-04-20T08:46:19.967Z,24.75
2023-04-20T08:48:24.430Z,19.60
2023-04-20T08:50:29.443Z,21.30
2023-04-20T08:52:35.548Z,21.48
2023-04-20T08:54:45.834Z,19.67
2023-04-20T08:56:52.947Z,23.30
2023-04-20T08:58:58.824Z,20.27
2023-04-20T09:01:02.201Z,22.45
2023-04-20T09:03:05.793Z,21.35
2023-04-20T09:05:10.113Z,17.67
2023-04-20T09:07:20.892Z,19.80
2023-04-20T09:09:25.887Z,21.20
2023-04-20T09:11:30.639Z,20.08
2023-04-20T09:13:34.293Z,15.85
2023-04-20T09:15:37.554Z,19.30
2023-04-20T09:17:41.859Z,14.55
2023-04-20T09:19:46.275Z,19.13
2023-04-20T09:21:50.248Z,19.92
2023-04-20T09:24:00.493Z,17.20
2023-04-20T09:26:03.902Z,17.80
2023-04-20T09:28:07.202Z,17.73
2023-04-20T09:30:11.476Z,13.60
2023-04-20T09:32:23.416Z,16.17
2023-04-20T09:34:27.017Z,16.25
2023-04-20T09:36:38.196Z,16.05
2023-04-20T09:38:41.577Z,14.90
2023-04-20T09:40:46.348Z,15.77
2023-04-20T09:42:51.024Z,14.25
2023-04-20T09:44:55.006Z,19.40
2023-04-20T09:46:58.443Z,20.77
2023-04-20T09:49:03.873Z,16.10
2023-04-20T09:51:08.271Z,20.35
2023-04-20T09:53:12.321Z,20.92
2023-04-20T09:55:16.059Z,18.40
2023-04-20T09:57:20.963Z,18.52
2023-04-20T09:59:25.189Z,17.90
2023-04-20T10:01:31.852Z,19.50
2023-04-20T10:03:36.239Z,18.63
2023-04-20T10:05:41.127Z,20.02
2023-04-20T10:07:45.410Z,16.30
2023-04-20T10:09:48.825Z,23.65
2023-04-20T10:11:54.033Z,17.50
2023-04-20T10:14:01.591Z,18.17
2023-04-20T10:16:05.080Z,15.82
2023-04-20T10:18:23.629Z,16.13
2023-04-20T10:20:29.213Z,14.98
2023-04-20T10:22:34.042Z,17.63
2023-04-20T10:24:38.495Z,14.85
2023-04-20T10:26:43.130Z,14.90
2023-04-20T10:28:46.606Z,14.25
2023-04-20T10:30:54.925Z,16.23
2023-04-20T10:33:08.424Z,11.43
2023-04-20T10:35:14.467Z,16.52
2023-04-20T10:37:17.834Z,14.63
2023-04-20T10:39:23.103Z,15.38
2023-04-20T10:41:26.765Z,15.43
2023-04-20T10:43:30.136Z,16.00
2023-04-20T10:45:37.042Z,21.65
2023-04-20T10:47:41.927Z,15.10
2023-04-20T10:49:45.589Z,16.45
2023-04-20T10:51:50.634Z,17.77
2023-04-20T10:54:06.028Z,14.20
2023-04-20T10:56:10.859Z,17.75
2023-04-20T10:58:23.137Z,15.30
2023-04-20T11:00:30.902Z,15.07
2023-04-20T11:02:35.309Z,17.35
2023-04-20T11:04:40.411Z,18.23
2023-04-20T11:06:45.522Z,18.27
2023-04-20T11:08:48.898Z,13.50
2023-04-20T11:10:52.369Z,12.07
2023-04-20T11:12:55.787Z,16.27
2023-04-20T11:15:00.420Z,14.23
2023-04-20T11:17:03.923Z,16.15
2023-04-20T11:19:07.448Z,16.58
2023-04-20T11:21:12.202Z,14.63
2023-04-20T11:23:15.477Z,16.52
2023-04-20T11:25:18.838Z,15.13
2023-04-20T11:27:23.728Z,15.35
2023-04-20T11:29:31.998Z,19.83
2023-04-20T11:31:35.593Z,15.18
2023-04-20T11:33:39.254Z,15.30
2023-04-20T11:35:44.436Z,18.17
2023-04-20T11:37:51.620Z,21.20
2023-04-20T11:40:01.578Z,18.95
2023-04-20T11:42:05.405Z,18.63
2023-04-20T11:44:08.945Z,13.27
2023-04-20T11:46:16.907Z,13.98
2023-04-20T11:48:20.421Z,16.45
2023-04-20T11:50:24.145Z,15.63
2023-04-20T11:52:27.703Z,16.80
2023-04-20T11:54:34.093Z,16.58
2023-04-20T11:56:38.202Z,16.05
2023-04-20T11:58:41.750Z,21.88
2023-04-20T12:00:45.169Z,15.27
2023-04-20T12:02:48.757Z,17.30
2023-04-20T12:04:52.328Z,15.23
2023-04-20T12:06:55.717Z,17.98
2023-04-20T12:08:59.221Z,19.58
2023-04-20T12:11:05.732Z,18.90
2023-04-20T12:13:09.064Z,20.15
2023-04-20T12:15:12.892Z,19.92
2023-04-20T12:17:16.358Z,16.75
2023-04-20T12:19:20.465Z,14.55
2023-04-20T12:21:24.288Z,18.77
2023-04-20T12:23:28.005Z,19.00
2023-04-20T12:25:31.388Z,17.00
2023-04-20T12:27:36.192Z,19.13
2023-04-20T12:29:39.736Z,17.98
2023-04-20T12:31:43.433Z,16.25
2023-04-20T12:33:47.071Z,19.63
2023-04-20T12:35:50.581Z,20.20
2023-04-20T12:37:54.031Z,18.60
2023-04-20T12:39:57.871Z,16.33
2023-04-20T12:42:02.453Z,20.25
2023-04-20T12:44:09.301Z,19.30
2023-04-20T12:46:14.353Z,20.38
2023-04-20T12:48:18.096Z,20.00
2023-04-20T12:50:21.519Z,20.17
2023-04-20T12:52:25.066Z,17.63
2023-04-20T12:54:28.889Z,21.77
2023-04-20T12:56:32.301Z,19.27
2023-04-20T12:58:35.939Z,19.75
2023-04-20T13:00:42.980Z,21.42
2023-04-20T13:02:46.596Z,21.27
2023-04-20T13:04:50.280Z,15.63
2023-04-20T13:06:53.742Z,19.88
2023-04-20T13:08:57.149Z,19.23
2023-04-20T13:11:00.543Z,19.35
2023-04-20T13:13:04.093Z,20.88
2023-04-20T13:15:09.856Z,21.42
2023-04-20T13:17:14.716Z,20.50
2023-04-20T13:19:18.161Z,21.25
2023-04-20T13:21:21.576Z,22.20
2023-04-20T13:23:25.449Z,20.80
2023-04-20T13:25:32.712Z,21.50
2023-04-20T13:27:36.269Z,23.58
2023-04-20T13:29:40.125Z,19.20
2023-04-20T13:31:43.757Z,15.68
2023-04-20T13:33:48.584Z,18.42
2023-04-20T13:35:51.947Z,21.25
2023-04-20T13:37:55.658Z,18.13
2023-04-20T13:39:59.065Z,24.85
2023-04-20T13:42:03.037Z,17.58
2023-04-20T13:44:07.944Z,21.30
2023-04-20T13:46:11.429Z,23.10
2023-04-20T13:48:15.681Z,21.23
2023-04-20T13:50:21.645Z,19.92
2023-04-20T13:52:25.508Z,22.52
2023-04-20T13:54:29.101Z,19.20
2023-04-20T13:56:33.823Z,19.05
2023-04-20T13:58:37.318Z,21.92
2023-04-20T14:00:40.835Z,21.08
2023-04-20T14:02:44.370Z,26.65
2023-04-20T14:04:48.341Z,22.20
2023-04-20T14:06:54.832Z,21.13
2023-04-20T14:08:58.356Z,21.02
2023-04-20T14:11:01.801Z,22.55
2023-04-20T14:13:05.325Z,24.15
2023-04-20T14:15:10.319Z,20.10
2023-04-20T14:17:18.811Z,25.10
2023-04-20T14:19:22.846Z,24.35
2023-04-20T14:21:28.001Z,24.40
2023-04-20T14:23:32.961Z,24.80
2023-04-20T14:25:36.354Z,23.30
2023-04-20T14:27:40.150Z,20.75
2023-04-20T14:29:46.796Z,22.40
2023-04-20T14:31:50.191Z,20.02
2023-04-20T14:33:53.931Z,17.33
2023-04-20T14:35:57.303Z,17.52
2023-04-20T14:38:00.722Z,22.13
2023-04-20T14:40:07.823Z,23.70
2023-04-20T14:42:12.068Z,27.35
2023-04-20T14:44:15.603Z,22.00
2023-04-20T14:46:19.764Z,21.63
2023-04-20T14:48:24.202Z,22.48
2023-04-20T14:50:28.567Z,17.23
2023-04-20T14:52:32.028Z,19.52
2023-04-20T14:54:35.563Z,24.30
2023-04-20T14:56:40.493Z,19.08
2023-04-20T14:58:44.240Z,24.20
2023-04-20T15:00:48.916Z,27.40
2023-04-20T15:02:52.812Z,21.38
2023-04-20T15:04:59.347Z,25.55
2023-04-20T15:07:04.089Z,19.45
2023-04-20T15:09:07.502Z,18.35
2023-04-20T15:11:11.015Z,25.15
2023-04-20T15:13:16.871Z,25.92
2023-04-20T15:15:20.472Z,18.52
2023-04-20T15:17:23.863Z,21.00
2023-04-20T15:19:27.322Z,19.58
2023-04-20T15:21:30.812Z,23.65
2023-04-20T15:23:34.169Z,21.50
2023-04-20T15:25:37.701Z,20.70
2023-04-20T15:27:41.166Z,24.50
2023-04-20T15:29:46.225Z,20.33
2023-04-20T15:31:49.738Z,21.52
2023-04-20T15:33:53.046Z,22.17
2023-04-20T15:35:56.478Z,22.02
2023-04-20T15:38:00.321Z,24.15
2023-04-20T15:40:04.620Z,20.00
2023-04-20T15:42:08.702Z,17.58
2023-04-20T15:44:12.526Z,18.65
2023-04-20T15:46:17.389Z,21.52
2023-04-20T15:48:20.746Z,17.58
2023-04-20T15:50:24.415Z,19.08
2023-04-20T15:52:28.375Z,21.08
2023-04-20T15:54:32.405Z,15.57
2023-04-20T15:56:35.951Z,18.13
2023-04-20T15:58:40.214Z,15.43
2023-04-20T16:00:43.836Z,17.88
2023-04-20T16:02:48.850Z,19.13
2023-04-20T16:04:52.444Z,19.33
2023-04-20T16:06:56.694Z,15.73
2023-04-20T16:09:00.168Z,14.95
2023-04-20T16:11:03.885Z,16.27
2023-04-20T16:13:07.238Z,18.75
2023-04-20T16:15:11.182Z,15.82
2023-04-20T16:17:14.497Z,20.63
2023-04-20T16:19:19.197Z,15.98
2023-04-20T16:21:23.424Z,21.58
2023-04-20T16:23:26.811Z,19.35
2023-04-20T16:25:32.442Z,19.00
2023-04-20T16:27:35.839Z,18.63
2023-04-20T16:29:39.209Z,18.23
2023-04-20T16:31:42.664Z,19.50
2023-04-20T16:33:46.030Z,19.20
2023-04-20T16:35:51.225Z,20.77
2023-04-20T16:37:54.805Z,18.35
2023-04-20T16:39:58.124Z,19.48
2023-04-20T16:42:01.487Z,22.40
2023-04-20T16:44:04.903Z,17.35
2023-04-20T16:46:13.155Z,21.17
2023-04-20T16:48:16.725Z,21.55
2023-04-20T16:50:20.533Z,17.63
2023-04-20T16:52:25.281Z,18.35
2023-04-20T16:54:28.846Z,22.77
2023-04-20T16:56:32.294Z,24.45
2023-04-20T16:58:35.880Z,19.88
2023-04-20T17:00:41.672Z,20.73
2023-04-20T17:02:45.165Z,17.42
2023-04-20T17:04:48.585Z,18.40
2023-04-20T17:06:53.046Z,18.48
2023-04-20T17:09:05.062Z,19.88
2023-04-20T17:11:08.406Z,20.95
2023-04-20T17:13:11.858Z,16.67
2023-04-20T17:15:15.225Z,20.80
2023-04-20T17:17:18.635Z,20.88
2023-04-20T17:19:22.223Z,17.52
2023-04-20T17:21:25.844Z,19.70
2023-04-20T17:23:29.761Z,17.45
2023-04-20T17:25:35.333Z,21.95
2023-04-20T17:27:38.803Z,24.08
2023-04-20T17:29:44.967Z,20.13
2023-04-20T17:31:48.453Z,27.08
2023-04-20T17:33:51.894Z,20.50
2023-04-20T17:35:55.286Z,23.92
2023-04-20T17:37:59.722Z,23.98
2023-04-20T17:40:03.560Z,17.30
2023-04-20T17:42:08.442Z,21.08
2023-04-20T17:44:12.277Z,20.58
2023-04-20T17:46:15.826Z,18.20
2023-04-20T17:48:19.280Z,23.15
2023-04-20T17:50:23.185Z,19.10
2023-04-20T17:52:27.239Z,18.50
2023-04-20T17:54:30.774Z,20.50
2023-04-20T17:56:34.116Z,24.85
2023-04-20T17:58:39.587Z,19.15
2023-04-20T18:00:43.086Z,18.88
2023-04-20T18:02:46.532Z,28.30
2023-04-20T18:04:49.976Z,20.90
2023-04-20T18:06:53.381Z,23.40
2023-04-20T18:08:57.316Z,18.98
2023-04-20T18:11:02.080Z,19.60
2023-04-20T18:13:05.951Z,19.60
2023-04-20T18:15:11.736Z,18.02
2023-04-20T18:17:15.126Z,23.50
2023-04-20T18:19:18.479Z,21.77
2023-04-20T18:21:21.856Z,26.27
2023-04-20T18:23:25.205Z,20.27
2023-04-20T18:25:28.694Z,20.75
2023-04-20T18:27:32.214Z,22.05
2023-04-20T18:29:35.559Z,27.13
2023-04-20T18:31:40.423Z,24.52
2023-04-20T18:33:43.858Z,26.13
2023-04-20T18:35:47.410Z,21.77
2023-04-20T18:37:51.847Z,18.40
2023-04-20T18:39:55.937Z,24.00
2023-04-20T18:42:00.932Z,21.15
2023-04-20T18:44:04.532Z,23.90
2023-04-20T18:46:07.903Z,20.38
2023-04-20T18:48:12.811Z,20.08
2023-04-20T18:50:18.478Z,22.33
2023-04-20T18:52:23.917Z,28.88
2023-04-20T18:54:29.352Z,26.30
2023-04-20T18:56:32.850Z,18.75
2023-04-20T18:58:36.326Z,21.88
2023-04-20T19:00:39.729Z,20.02
2023-04-20T19:02:43.340Z,20.23
2023-04-20T19:04:48.338Z,25.45
2023-04-20T19:06:51.790Z,22.92
2023-04-20T19:08:55.946Z,25.63
2023-04-20T19:11:00.587Z,23.55
2023-04-20T19:13:04.049Z,24.75
2023-04-20T19:15:09.059Z,22.45
2023-04-20T19:17:12.631Z,25.85
2023-04-20T19:19:16.070Z,21.20
2023-04-20T19:21:22.118Z,25.33
2023-04-20T19:23:25.617Z,28.98
2023-04-20T19:25:29.698Z,23.20
2023-04-20T19:27:33.032Z,26.95
2023-04-20T19:29:37.137Z,25.55
2023-04-20T19:31:42.158Z,26.35
2023-04-20T19:33:45.554Z,23.58
2023-04-20T19:35:51.060Z,24.95
2023-04-20T19:37:55.947Z,24.48
2023-04-20T19:39:59.394Z,23.55
2023-04-20T19:42:02.780Z,21.52
2023-04-20T19:44:10.475Z,26.95
2023-04-20T19:46:16.872Z,20.05
2023-04-20T19:48:20.534Z,22.33
2023-04-20T19:50:23.867Z,21.45
2023-04-20T19:52:27.208Z,25.40
2023-04-20T19:54:32.109Z,18.17
2023-04-20T19:56:37.173Z,23.77
2023-04-20T19:58:40.780Z,20.13
2023-04-20T20:00:44.172Z,23.27
2023-04-20T20:02:47.706Z,15.93
2023-04-20T20:04:52.198Z,19.33
2023-04-20T20:06:56.323Z,22.45
2023-04-20T20:08:59.975Z,18.15
2023-04-20T20:11:04.933Z,19.58
2023-04-20T20:13:08.273Z,21.83
2023-04-20T20:15:11.610Z,19.15
2023-04-20T20:17:15.015Z,22.90
2023-04-20T20:19:24.652Z,19.00
2023-04-20T20:21:28.049Z,23.45
2023-04-20T20:23:31.475Z,22.20
2023-04-20T20:25:35.359Z,21.90
2023-04-20T20:27:40.777Z,22.58
2023-04-20T20:29:44.203Z,24.35
2023-04-20T20:31:47.993Z,25.85
2023-04-20T20:33:52.152Z,23.90
2023-04-20T20:35:55.932Z,23.65
2023-04-20T20:37:59.340Z,24.17
2023-04-20T20:40:10.341Z,20.95
2023-04-20T20:42:15.676Z,18.50
2023-04-20T20:44:20.753Z,18.90
2023-04-20T20:46:24.331Z,19.25
2023-04-20T20:48:27.745Z,20.35
2023-04-20T20:50:31.343Z,17.75
2023-04-20T20:52:34.770Z,20.77
2023-04-20T20:54:38.110Z,23.10
2023-04-20T20:56:41.556Z,23.60
2023-04-20T20:58:45.373Z,27.27
2023-04-20T21:00:50.365Z,24.23
2023-04-20T21:02:53.886Z,26.40
2023-04-20T21:04:57.373Z,21.98
2023-04-20T21:07:00.891Z,22.48
2023-04-20T21:09:04.700Z,20.35
2023-04-20T21:11:08.741Z,25.35
2023-04-20T21:13:12.083Z,25.20
2023-04-20T21:15:15.391Z,23.63
2023-04-20T21:17:20.109Z,25.52
2023-04-20T21:19:23.485Z,22.55
2023-04-20T21:21:27.489Z,23.05
2023-04-20T21:23:30.831Z,23.33
2023-04-20T21:25:34.103Z,22.73
2023-04-20T21:27:37.468Z,28.45
2023-04-20T21:29:40.809Z,24.55
2023-04-20T21:31:44.104Z,27.48
2023-04-20T21:33:48.848Z,26.20
2023-04-20T21:35:52.197Z,28.65
2023-04-20T21:37:55.473Z,25.52
2023-04-20T21:39:58.831Z,28.27
2023-04-20T21:42:03.209Z,25.98
2023-04-20T21:44:06.859Z,24.80
2023-04-20T21:46:10.306Z,25.42
2023-04-20T21:48:13.664Z,27.50
2023-04-20T21:50:18.594Z,26.15
2023-04-20T21:52:21.925Z,24.20
2023-04-20T21:54:25.310Z,25.15
2023-04-20T21:56:28.654Z,25.00
2023-04-20T21:58:32.012Z,27.15
2023-04-20T22:00:35.451Z,26.65
2023-04-20T22:02:38.956Z,30.33
2023-04-20T22:04:42.781Z,27.83
2023-04-20T22:06:48.818Z,22.10
2023-04-20T22:08:52.157Z,24.08
2023-04-20T22:10:56.606Z,22.25
2023-04-20T22:13:00.164Z,23.83
2023-04-20T22:15:03.519Z,24.67
2023-04-20T22:17:09.721Z,26.58
2023-04-20T22:19:13.100Z,29.05
2023-04-20T22:21:16.401Z,27.38
2023-04-20T22:23:21.257Z,32.92
2023-04-20T22:25:24.982Z,25.30
2023-04-20T22:27:28.996Z,30.05
2023-04-20T22:29:32.360Z,24.10
2023-04-20T22:31:35.755Z,24.38
2023-04-20T22:33:39.142Z,24.88
2023-04-20T22:35:42.758Z,21.05
2023-04-20T22:37:46.037Z,26.52
2023-04-20T22:39:50.813Z,23.90
2023-04-20T22:41:54.074Z,25.08
2023-04-20T22:43:57.425Z,21.88
2023-04-20T22:46:00.758Z,22.55
2023-04-20T22:48:04.218Z,26.13
2023-04-20T22:50:09.612Z,28.65
2023-04-20T22:52:13.753Z,23.83
2023-04-20T22:54:17.236Z,32.50
2023-04-20T22:56:21.963Z,26.85
2023-04-20T22:58:25.237Z,22.20
2023-04-20T23:00:28.762Z,25.67
2023-04-20T23:02:32.532Z,26.27
2023-04-20T23:04:37.698Z,30.90
2023-04-20T23:06:43.949Z,27.90
2023-04-20T23:08:47.315Z,25.98
2023-04-20T23:10:50.861Z,28.08
2023-04-20T23:12:56.144Z,26.38
2023-04-20T23:15:00.736Z,28.27
2023-04-20T23:17:04.170Z,28.20
2023-04-20T23:19:07.531Z,28.77
2023-04-20T23:21:10.782Z,25.58
2023-04-20T23:23:14.109Z,31.00
2023-04-20T23:25:17.575Z,31.42
2023-04-20T23:27:20.875Z,28.20
2023-04-20T23:29:25.564Z,26.25
2023-04-20T23:31:28.944Z,25.40
2023-04-20T23:33:32.274Z,33.08
2023-04-20T23:35:35.623Z,28.38
2023-04-20T23:37:39.109Z,30.73
2023-04-20T23:39:42.417Z,25.95
2023-04-20T23:41:45.712Z,27.35
2023-04-20T23:43:48.962Z,26.35
2023-04-20T23:46:04.734Z,27.17
2023-04-20T23:48:08.572Z,27.75
2023-04-20T23:50:12.349Z,23.35
2023-04-20T23:52:15.682Z,31.35
2023-04-20T23:54:19.134Z,27.77
2023-04-20T23:56:22.589Z,28.83
2023-04-20T23:58:26.368Z,26.58
